Time;durP1;ratioP1;P1;durP2;ratioP2;P2;SDS_P1;SDS_P2;PMS_P1;PMS_P2;Temp;Humidity;BMP_temperature;BMP_pressure;BME280_temperature;BME280_humidity;BME280_pressure;Samples;Min_cycle;Max_cycle;Signal;HPM_P1;HPM_P2
2024/02/26 00:01:53;;;;;;;11.15;5.40;;;;;;;2.95;100.00;99855.38;6096792;23;20604;-68
2024/02/26 00:04:23;;;;;;;5.80;2.47;;;;;;;3.10;100.00;99857.31;6096647;23;20165;-69
2024/02/26 00:06:54;;;;;;;4.15;3.92;;;;;;;2.91;100.00;99862.09;6096573;23;20541;-69
2024/02/26 00:09:23;;;;;;;6.13;4.68;;;;;;;2.77;100.00;99848.66;6096925;23;20191;-69
2024/02/26 00:11:52;;;;;;;6.70;2.58;;;;;;;2.85;100.00;99849.47;6096721;23;20577;-69
2024/02/26 00:14:22;;;;;;;3.95;2.55;;;;;;;2.88;100.00;99843.75;6096685;23;20556;-71
2024/02/26 00:16:51;;;;;;;3.80;2.75;;;;;;;2.88;100.00;99841.09;6070836;23;20180;-68
2024/02/26 00:19:20;;;;;;;4.85;3.10;;;;;;;2.84;100.00;99841.63;6096753;23;20198;-70
2024/02/26 00:21:49;;;;;;;4.22;3.30;;;;;;;2.69;100.00;99846.91;6071230;23;20648;-70
2024/02/26 00:24:18;;;;;;;3.13;2.25;;;;;;;2.69;100.00;99838.88;6096424;23;20168;-69
2024/02/26 00:26:52;;;;;;;2.88;2.67;;;;;;;2.75;100.00;99834.69;6096677;23;20175;-69
2024/02/26 00:29:23;;;;;;;3.10;2.80;;;;;;;2.76;100.00;99831.81;6096525;23;20195;-69
2024/02/26 00:31:52;;;;;;;4.00;3.55;;;;;;;2.62;100.00;99829.91;6096153;23;20177;-69
2024/02/26 00:34:21;;;;;;;3.28;2.97;;;;;;;2.53;100.00;99834.47;6096550;23;20501;-68
2024/02/26 00:36:50;;;;;;;4.32;3.63;;;;;;;2.49;100.00;99832.31;6096363;23;20223;-68
2024/02/26 00:39:19;;;;;;;2.22;2.00;;;;;;;2.55;100.00;99834.31;6096595;23;20259;-70
2024/02/26 00:41:48;;;;;;;6.35;3.97;;;;;;;2.48;100.00;99828.00;6101556;23;20630;-70
2024/02/26 00:44:17;;;;;;;2.50;2.05;;;;;;;2.43;100.00;99830.34;6097804;23;20195;-69
2024/02/26 00:46:48;;;;;;;6.95;4.50;;;;;;;2.37;100.00;99834.56;6097321;23;20570;-70
2024/02/26 00:49:17;;;;;;;2.80;2.60;;;;;;;2.28;100.00;99832.09;6078053;23;20204;-69
2024/02/26 00:51:46;;;;;;;4.97;2.97;;;;;;;2.22;100.00;99830.16;6096114;23;20477;-69
2024/02/26 00:54:15;;;;;;;5.55;4.95;;;;;;;2.30;100.00;99822.09;6096332;23;20648;-69
2024/02/26 00:56:43;;;;;;;3.92;2.45;;;;;;;2.44;100.00;99822.19;6097013;23;20167;-69
2024/02/26 00:59:12;;;;;;;4.43;4.13;;;;;;;2.58;100.00;99828.59;6096428;23;20252;-70
2024/02/26 01:01:41;;;;;;;2.90;2.22;;;;;;;2.62;100.00;99820.06;6098694;23;20239;-68
2024/02/26 01:04:12;;;;;;;11.60;3.13;;;;;;;2.56;100.00;99822.63;6098680;23;20165;-68
2024/02/26 01:06:41;;;;;;;2.67;2.47;;;;;;;2.56;100.00;99817.28;6098422;23;20187;-69
2024/02/26 01:09:10;;;;;;;1.95;1.85;;;;;;;2.52;100.00;99818.59;6098240;23;20584;-69
2024/02/26 01:11:39;;;;;;;2.30;1.90;;;;;;;2.47;100.00;99816.47;6099104;23;20226;-69
2024/02/26 01:14:08;;;;;;;1.95;1.85;;;;;;;2.52;100.00;99814.09;6098544;23;20156;-70
2024/02/26 01:16:37;;;;;;;22.30;3.63;;;;;;;2.50;100.00;99816.13;6098688;23;20183;-69
2024/02/26 01:19:06;;;;;;;5.15;3.65;;;;;;;2.46;100.00;99819.34;6098424;23;20258;-70
2024/02/26 01:21:36;;;;;;;2.22;2.03;;;;;;;2.45;100.00;99829.19;6098881;23;20512;-68
2024/02/26 01:24:05;;;;;;;3.33;3.03;;;;;;;2.46;100.00;99819.34;6098887;23;20177;-69
2024/02/26 01:26:34;;;;;;;5.88;3.13;;;;;;;2.31;100.00;99826.44;6098440;23;20613;-67
2024/02/26 01:29:03;;;;;;;2.88;2.58;;;;;;;2.28;100.00;99822.25;6098398;23;20184;-67
2024/02/26 01:31:32;;;;;;;3.35;3.05;;;;;;;2.20;100.00;99822.31;6098357;23;20163;-68
2024/02/26 01:34:01;;;;;;;2.53;2.33;;;;;;;2.13;100.00;99826.69;6097983;23;20159;-70
2024/02/26 01:36:30;;;;;;;2.92;2.72;;;;;;;2.07;100.00;99830.88;6098143;23;20178;-67
2024/02/26 01:39:03;;;;;;;2.00;1.80;;;;;;;2.19;100.00;99823.31;6097819;23;20247;-68
2024/02/26 01:41:32;;;;;;;2.85;2.55;;;;;;;2.49;100.00;99816.31;6097576;23;20176;-67
2024/02/26 01:44:01;;;;;;;2.45;2.25;;;;;;;2.41;100.00;99811.03;6097442;23;20551;-70
2024/02/26 01:46:35;;;;;;;3.00;2.80;;;;;;;2.28;100.00;99800.91;6097456;23;20175;-69
2024/02/26 01:49:04;;;;;;;2.88;2.55;;;;;;;2.30;100.00;99808.75;6097350;23;20580;-68
2024/02/26 01:51:35;;;;;;;2.05;1.90;;;;;;;2.30;100.00;99809.56;6097326;23;20168;-68
2024/02/26 01:54:05;;;;;;;3.95;3.65;;;;;;;2.32;100.00;99796.06;6097730;23;20162;-68
2024/02/26 01:56:34;;;;;;;4.03;3.42;;;;;;;2.15;100.00;99798.81;6097652;23;20155;-68
2024/02/26 01:59:04;;;;;;;2.50;2.10;;;;;;;2.09;100.00;99804.84;6097145;23;20275;-68
2024/02/26 02:01:35;;;;;;;6.32;2.30;;;;;;;2.04;100.00;99815.19;6097865;23;20568;-69
2024/02/26 02:04:04;;;;;;;3.83;3.50;;;;;;;2.00;100.00;99813.88;6097627;23;20221;-68
2024/02/26 02:06:33;;;;;;;5.93;3.47;;;;;;;2.01;100.00;99815.56;6097234;23;20147;-66
2024/02/26 02:09:06;;;;;;;4.22;3.85;;;;;;;2.06;100.00;99815.88;6096574;23;20724;-66
2024/02/26 02:11:35;;;;;;;2.15;1.95;;;;;;;1.95;100.00;99813.56;6096989;23;20177;-67
2024/02/26 02:14:04;;;;;;;1.77;1.67;;;;;;;1.97;100.00;99814.25;6097191;23;20282;-67
2024/02/26 02:16:33;;;;;;;2.97;1.65;;;;;;;1.86;100.00;99811.13;6096839;23;20202;-67
2024/02/26 02:19:02;;;;;;;3.58;2.42;;;;;;;1.81;100.00;99811.63;6096624;23;20274;-64
2024/02/26 02:21:32;;;;;;;3.25;2.20;;;;;;;1.94;100.00;99803.06;6096731;23;20152;-66
2024/02/26 02:24:01;;;;;;;2.67;2.58;;;;;;;1.95;100.00;99810.91;6071402;23;20167;-67
2024/02/26 02:26:30;;;;;;;2.88;2.67;;;;;;;2.04;100.00;99811.69;6096895;23;20159;-65
2024/02/26 02:29:00;;;;;;;4.70;3.85;;;;;;;2.05;100.00;99808.03;6071348;23;20202;-67
2024/02/26 02:31:29;;;;;;;2.15;2.00;;;;;;;2.04;100.00;99806.34;6097058;23;20222;-66
2024/02/26 02:33:58;;;;;;;2.58;2.38;;;;;;;1.94;100.00;99803.91;6096779;23;20174;-66
2024/02/26 02:36:28;;;;;;;3.60;2.90;;;;;;;1.91;100.00;99814.09;6096545;23;20551;-66
2024/02/26 02:38:58;;;;;;;3.92;1.65;;;;;;;1.84;100.00;99802.47;6096608;23;20287;-68
2024/02/26 02:41:29;;;;;;;2.00;1.80;;;;;;;1.84;100.00;99813.94;6096775;23;20238;-66
2024/02/26 02:43:58;;;;;;;1.42;1.33;;;;;;;1.79;100.00;99805.66;6096514;23;20158;-67
2024/02/26 02:46:27;;;;;;;3.00;2.03;;;;;;;1.81;100.00;99813.47;6096454;23;20168;-65
2024/02/26 02:48:56;;;;;;;2.38;2.17;;;;;;;1.81;100.00;99808.97;6096644;23;20195;-67
2024/02/26 02:51:25;;;;;;;1.08;0.90;;;;;;;1.85;100.00;99807.59;6096848;23;20186;-66
2024/02/26 02:53:54;;;;;;;3.92;3.42;;;;;;;1.88;100.00;99819.78;6096754;23;20187;-67
2024/02/26 02:56:24;;;;;;;4.63;2.05;;;;;;;1.80;100.00;99812.63;6096663;23;20223;-68
2024/02/26 02:58:53;;;;;;;3.00;2.80;;;;;;;1.75;100.00;99813.16;6105229;23;20199;-67
2024/02/26 03:01:22;;;;;;;2.58;1.67;;;;;;;1.71;100.00;99819.00;6106796;23;20164;-66
2024/02/26 03:03:51;;;;;;;2.25;2.08;;;;;;;1.72;100.00;99826.84;6097968;23;20164;-67
2024/02/26 03:06:20;;;;;;;5.38;3.08;;;;;;;1.69;100.00;99821.81;6097180;23;20168;-67
2024/02/26 03:08:49;;;;;;;1.40;1.30;;;;;;;1.82;100.00;99825.81;6096638;23;20532;-67
2024/02/26 03:11:19;;;;;;;2.22;2.13;;;;;;;1.83;100.00;99820.31;6096415;23;20171;-66
2024/02/26 03:13:49;;;;;;;3.28;3.08;;;;;;;2.00;100.00;99823.72;6096313;23;20163;-66
2024/02/26 03:16:18;;;;;;;3.25;2.42;;;;;;;1.92;100.00;99824.59;6096782;23;20216;-65
2024/02/26 03:18:47;;;;;;;2.38;2.15;;;;;;;1.89;100.00;99822.25;6096284;23;20275;-66
2024/02/26 03:21:17;;;;;;;1.13;1.02;;;;;;;2.02;100.00;99825.22;6096245;23;20552;-67
2024/02/26 03:23:46;;;;;;;2.58;2.35;;;;;;;2.03;100.00;99826.06;6096039;23;20175;-66
2024/02/26 03:26:14;;;;;;;1.60;0.93;;;;;;;2.06;100.00;99821.22;6096308;23;20168;-68
2024/02/26 03:28:43;;;;;;;2.97;0.95;;;;;;;2.09;100.00;99823.53;6096289;23;20180;-66
2024/02/26 03:31:14;;;;;;;4.70;2.15;;;;;;;2.17;100.00;99825.34;6096047;23;20508;-67
2024/02/26 03:33:43;;;;;;;2.90;0.93;;;;;;;2.11;100.00;99818.84;6096251;23;20189;-67
2024/02/26 03:36:11;;;;;;;3.17;1.70;;;;;;;2.11;100.00;99820.69;6096038;23;20171;-67
2024/02/26 03:38:40;;;;;;;1.13;0.90;;;;;;;2.12;100.00;99812.50;6096061;23;20238;-67
2024/02/26 03:41:09;;;;;;;4.75;2.28;;;;;;;2.06;100.00;99812.38;6070554;23;20171;-65
2024/02/26 03:44:02;;;;;;;2.85;1.85;;;;;;;2.02;100.00;99817.22;6096083;23;20485;-67
2024/02/26 03:46:32;;;;;;;1.25;1.10;;;;;;;2.00;100.00;99824.56;6096188;23;20316;-68
2024/02/26 03:49:01;;;;;;;1.30;1.15;;;;;;;2.04;100.00;99831.22;6095858;23;20187;-67
2024/02/26 03:51:31;;;;;;;2.45;1.20;;;;;;;2.05;100.00;99835.56;6096230;23;20219;-67
2024/02/26 03:54:00;;;;;;;9.55;4.45;;;;;;;2.05;100.00;99832.03;6096323;23;20211;-68
2024/02/26 03:56:29;;;;;;;1.90;1.70;;;;;;;1.94;100.00;99830.56;6095836;23;20512;-67
2024/02/26 03:58:59;;;;;;;1.50;1.30;;;;;;;1.93;100.00;99830.78;6096068;23;20234;-66
2024/02/26 04:01:28;;;;;;;1.30;1.08;;;;;;;1.84;100.00;99839.81;6096081;23;20162;-65
2024/02/26 04:03:58;;;;;;;2.03;1.92;;;;;;;1.85;100.00;99842.28;6096121;23;20235;-66
2024/02/26 04:06:28;;;;;;;1.35;1.00;;;;;;;1.85;100.00;99839.63;6096841;23;20593;-65
2024/02/26 04:08:57;;;;;;;1.42;1.30;;;;;;;1.86;100.00;99848.47;6096627;23;20262;-66
2024/02/26 04:11:26;;;;;;;1.35;0.95;;;;;;;1.74;100.00;99840.00;6071469;23;20246;-65
2024/02/26 04:13:55;;;;;;;2.65;1.98;;;;;;;1.80;100.00;99839.31;6096920;23;20682;-68
2024/02/26 04:16:24;;;;;;;1.52;1.20;;;;;;;1.72;100.00;99831.34;6096372;23;20183;-66
2024/02/26 04:18:53;;;;;;;8.95;1.98;;;;;;;1.68;100.00;99851.34;6095985;23;20191;-66
2024/02/26 04:21:23;;;;;;;1.80;1.20;;;;;;;1.95;100.00;99852.75;6095826;23;20164;-68
2024/02/26 04:23:54;;;;;;;1.98;1.65;;;;;;;1.70;100.00;99849.34;6096017;23;20601;-66
2024/02/26 04:26:24;;;;;;;1.98;1.45;;;;;;;1.63;100.00;99854.53;6095855;23;20154;-65
2024/02/26 04:28:53;;;;;;;3.05;1.10;;;;;;;1.62;100.00;99854.69;6098479;23;20254;-68
2024/02/26 04:31:21;;;;;;;2.15;1.95;;;;;;;1.60;100.00;99848.69;6098368;23;20167;-66
2024/02/26 04:33:50;;;;;;;1.23;1.13;;;;;;;1.57;100.00;99859.69;6098026;23;20156;-66
2024/02/26 04:36:19;;;;;;;3.58;2.10;;;;;;;1.58;100.00;99856.03;6097967;23;20234;-66
2024/02/26 04:38:50;;;;;;;1.00;0.85;;;;;;;1.54;100.00;99868.03;6097864;23;20222;-66
2024/02/26 04:41:19;;;;;;;3.50;2.95;;;;;;;1.51;100.00;99863.03;6097979;23;20182;-66
2024/02/26 04:43:47;;;;;;;0.90;0.80;;;;;;;1.54;100.00;99865.38;6097815;23;20210;-67
2024/02/26 04:46:16;;;;;;;1.00;0.88;;;;;;;1.51;100.00;99871.88;6097670;23;20163;-67
2024/02/26 04:48:46;;;;;;;1.85;1.63;;;;;;;1.43;100.00;99871.88;6097690;23;20207;-67
2024/02/26 04:51:15;;;;;;;1.00;0.90;;;;;;;1.43;100.00;99873.72;6097851;23;20609;-67
2024/02/26 04:53:44;;;;;;;1.48;1.38;;;;;;;1.42;100.00;99877.38;6098340;23;20152;-66
2024/02/26 04:56:15;;;;;;;1.30;1.20;;;;;;;1.37;100.00;99871.72;6098439;23;20180;-67
2024/02/26 04:58:44;;;;;;;4.95;1.85;;;;;;;1.36;100.00;99878.03;6097968;23;20579;-67
2024/02/26 05:01:13;;;;;;;0.88;0.73;;;;;;;1.30;100.00;99874.25;6098306;23;20174;-66
2024/02/26 05:03:41;;;;;;;1.63;1.52;;;;;;;1.30;100.00;99876.91;6099087;23;20621;-67
2024/02/26 05:06:11;;;;;;;2.47;2.28;;;;;;;1.31;100.00;99878.53;6098639;23;20198;-65
2024/02/26 05:08:40;;;;;;;2.45;2.25;;;;;;;1.37;100.00;99874.38;6099050;23;20226;-68
2024/02/26 05:11:08;;;;;;;1.40;1.30;;;;;;;1.30;100.00;99884.91;6098132;23;20163;-67
2024/02/26 05:13:39;;;;;;;2.20;2.10;;;;;;;1.35;100.00;99887.06;6098114;23;20158;-66
2024/02/26 05:16:08;;;;;;;1.10;1.00;;;;;;;1.32;100.00;99893.53;6099251;23;20171;-66
2024/02/26 05:18:36;;;;;;;1.48;1.38;;;;;;;1.29;100.00;99889.41;6103136;23;20187;-66
2024/02/26 05:21:06;;;;;;;2.35;2.13;;;;;;;1.29;100.00;99900.06;6100758;23;20183;-69
2024/02/26 05:23:34;;;;;;;14.23;8.35;;;;;;;1.31;100.00;99892.72;6100096;23;20164;-65
2024/02/26 05:26:03;;;;;;;6.25;5.70;;;;;;;1.36;100.00;99905.53;6098557;23;20199;-67
2024/02/26 05:28:32;;;;;;;5.80;4.93;;;;;;;1.44;100.00;99896.72;6097794;23;20715;-66
2024/02/26 05:31:03;;;;;;;2.83;2.63;;;;;;;1.41;100.00;99907.69;6098582;23;20170;-65
2024/02/26 05:33:32;;;;;;;9.15;4.55;;;;;;;1.41;100.00;99907.69;6098638;23;20170;-69
2024/02/26 05:36:03;;;;;;;3.20;2.90;;;;;;;1.36;100.00;99896.69;6098832;23;20218;-67
2024/02/26 05:38:33;;;;;;;3.67;3.42;;;;;;;1.30;100.00;99900.88;6097849;23;20187;-66
2024/02/26 05:41:01;;;;;;;2.42;2.05;;;;;;;1.35;100.00;99908.38;6097960;23;20652;-65
2024/02/26 05:43:30;;;;;;;3.72;2.35;;;;;;;1.42;100.00;99912.88;6096982;23;20695;-68
2024/02/26 05:45:59;;;;;;;1.58;1.05;;;;;;;1.38;100.00;99914.22;6097329;23;20152;-66
2024/02/26 05:48:32;;;;;;;2.40;2.20;;;;;;;1.56;100.00;99911.34;6096913;23;20190;-65
2024/02/26 05:51:01;;;;;;;1.70;1.15;;;;;;;1.42;100.00;99912.03;6097510;23;20159;-67
2024/02/26 05:53:29;;;;;;;3.08;1.73;;;;;;;1.31;100.00;99919.38;6097379;23;20190;-68
2024/02/26 05:55:58;;;;;;;1.10;0.85;;;;;;;1.31;100.00;99927.34;6096998;23;20189;-67
2024/02/26 05:58:27;;;;;;;3.97;1.55;;;;;;;1.29;100.00;99924.03;6097879;23;20215;-65
2024/02/26 06:00:56;;;;;;;2.25;1.67;;;;;;;1.21;100.00;99931.22;6097337;23;20167;-67
2024/02/26 06:03:24;;;;;;;3.35;3.15;;;;;;;1.24;100.00;99934.38;6097064;23;20171;-67
2024/02/26 06:05:55;;;;;;;8.52;4.28;;;;;;;1.30;100.00;99936.38;6096845;23;20163;-66
2024/02/26 06:08:24;;;;;;;3.92;3.63;;;;;;;1.41;100.00;99935.19;6096904;23;20187;-67
2024/02/26 06:10:53;;;;;;;4.38;3.58;;;;;;;1.45;100.00;99941.88;6096589;23;20159;-68
2024/02/26 06:13:21;;;;;;;2.40;1.55;;;;;;;1.46;100.00;99940.84;6096783;23;20168;-67
2024/02/26 06:15:50;;;;;;;2.38;2.17;;;;;;;1.46;100.00;99942.69;6096962;23;20223;-67
2024/02/26 06:18:19;;;;;;;2.28;1.80;;;;;;;1.47;100.00;99944.34;6096907;23;20768;-68
2024/02/26 06:20:48;;;;;;;2.05;1.90;;;;;;;1.47;100.00;99941.69;6096803;23;20259;-66
2024/02/26 06:23:19;;;;;;;1.77;1.60;;;;;;;1.47;100.00;99939.03;6096758;23;20164;-66
2024/02/26 06:25:47;;;;;;;1.52;1.40;;;;;;;1.51;100.00;99940.34;6096817;23;20148;-66
2024/02/26 06:28:16;;;;;;;2.75;2.55;;;;;;;1.61;100.00;99941.00;6096601;23;20481;-66
2024/02/26 06:30:46;;;;;;;2.58;2.47;;;;;;;1.57;100.00;99948.53;6096698;23;20207;-67
2024/02/26 06:33:15;;;;;;;1.77;1.67;;;;;;;1.71;100.00;99947.84;6096967;23;20160;-66
2024/02/26 06:35:44;;;;;;;2.25;1.92;;;;;;;1.72;100.00;99943.34;6097056;23;20166;-67
2024/02/26 06:38:13;;;;;;;3.30;3.00;;;;;;;1.83;100.00;99951.00;6097913;23;20187;-68
2024/02/26 06:40:44;;;;;;;1.80;1.70;;;;;;;1.81;100.00;99953.00;6100788;23;20563;-70
2024/02/26 06:43:13;;;;;;;2.00;1.55;;;;;;;1.91;100.00;99959.00;6099536;23;20634;-68
2024/02/26 06:45:42;;;;;;;2.38;2.13;;;;;;;1.96;100.00;99958.47;6098790;23;20163;-67
2024/02/26 06:48:11;;;;;;;2.40;1.38;;;;;;;2.08;100.00;99963.28;6098781;23;20187;-68
2024/02/26 06:50:41;;;;;;;2.45;2.20;;;;;;;2.19;100.00;99968.28;6098797;23;20168;-69
2024/02/26 06:53:10;;;;;;;2.05;1.77;;;;;;;2.35;100.00;99969.22;6099168;23;20156;-70
2024/02/26 06:55:40;;;;;;;1.60;1.50;;;;;;;2.50;100.00;99965.69;6098375;23;20168;-69
2024/02/26 06:58:10;;;;;;;3.70;2.55;;;;;;;2.55;100.00;99978.50;6098015;23;20253;-69
2024/02/26 07:00:39;;;;;;;2.72;2.53;;;;;;;2.61;100.00;99980.50;6097964;23;20516;-68
2024/02/26 07:03:08;;;;;;;2.30;2.20;;;;;;;2.65;100.00;99986.31;6097953;23;20560;-68
2024/02/26 07:05:37;;;;;;;7.82;3.58;;;;;;;2.83;100.00;99985.06;6097947;23;20163;-70
2024/02/26 07:08:07;;;;;;;5.20;3.38;;;;;;;3.05;100.00;99989.63;6097852;23;20168;-67
2024/02/26 07:10:43;;;;;;;6.90;3.50;;;;;;;3.15;100.00;99989.38;6097000;23;20167;-69
2024/02/26 07:13:13;;;;;;;3.05;2.42;;;;;;;3.24;100.00;99990.19;6097754;23;20159;-68
2024/02/26 07:15:42;;;;;;;4.35;2.83;;;;;;;3.37;100.00;99999.28;6097565;23;20168;-67
2024/02/26 07:18:11;;;;;;;3.88;3.22;;;;;;;3.50;100.00;99998.69;6098173;23;20191;-66
2024/02/26 07:20:40;;;;;;;3.63;2.50;;;;;;;3.63;100.00;100004.25;6071266;23;20694;-69
2024/02/26 07:23:09;;;;;;;3.13;2.53;;;;;;;3.75;100.00;99993.97;6097288;23;20167;-68
2024/02/26 07:25:37;;;;;;;3.40;3.20;;;;;;;3.79;100.00;99996.13;6097324;23;20380;-68
2024/02/26 07:28:09;;;;;;;2.03;1.83;;;;;;;3.87;100.00;100001.38;6097199;23;20198;-68
2024/02/26 07:30:39;;;;;;;2.90;2.63;;;;;;;3.90;100.00;100003.72;6098169;23;20146;-68
2024/02/26 07:33:08;;;;;;;3.45;2.88;;;;;;;3.94;100.00;100005.03;6098206;23;20161;-66
2024/02/26 07:35:38;;;;;;;2.22;1.70;;;;;;;3.96;100.00;100012.03;6097959;23;20505;-68
2024/02/26 07:38:06;;;;;;;2.53;2.28;;;;;;;3.91;100.00;100000.03;6097905;23;20177;-68
2024/02/26 07:40:41;;;;;;;3.63;2.17;;;;;;;4.02;100.00;99995.28;6072471;23;20721;-69
2024/02/26 07:43:26;;;;;;;2.85;2.65;;;;;;;4.15;100.00;100001.66;6098575;23;20157;-68
2024/02/26 07:45:56;;;;;;;4.10;3.03;;;;;;;4.18;100.00;100000.44;6098140;23;20169;-70
2024/02/26 07:48:25;;;;;;;5.78;3.10;;;;;;;4.21;100.00;100006.25;6098378;23;20186;-70
2024/02/26 07:50:54;;;;;;;4.82;3.05;;;;;;;4.32;100.00;99996.94;6098153;23;20182;-71
2024/02/26 07:53:23;;;;;;;6.32;4.57;;;;;;;4.36;100.00;99999.06;6098426;23;20537;-70
2024/02/26 07:55:52;;;;;;;3.28;2.97;;;;;;;4.56;100.00;99999.34;6072053;23;20177;-70
2024/02/26 07:58:24;;;;;;;2.90;2.38;;;;;;;4.71;100.00;100002.88;6097310;23;20271;-67
2024/02/26 08:00:53;;;;;;;2.88;2.67;;;;;;;4.74;100.00;100002.47;6071598;23;20193;-71
2024/02/26 08:03:23;;;;;;;6.28;5.35;;;;;;;4.78;100.00;99993.06;6097239;23;20178;-70
2024/02/26 08:05:53;;;;;;;3.55;2.75;;;;;;;4.83;100.00;100000.56;6096501;23;20164;-71
2024/02/26 08:08:22;;;;;;;9.00;5.28;;;;;;;5.02;100.00;100001.81;6096942;23;20256;-70
2024/02/26 08:10:51;;;;;;;4.53;3.20;;;;;;;4.94;100.00;100002.75;6097200;23;20169;-71
2024/02/26 08:13:19;;;;;;;5.35;4.85;;;;;;;5.10;100.00;100001.69;6096800;23;20167;-69
2024/02/26 08:15:48;;;;;;;8.93;4.97;;;;;;;5.23;100.00;100000.00;6097418;23;20165;-70
2024/02/26 08:18:17;;;;;;;5.15;3.20;;;;;;;5.31;100.00;100001.75;6096048;23;20185;-70
2024/02/26 08:20:48;;;;;;;11.43;5.43;;;;;;;5.37;100.00;100008.22;6070370;23;20517;-70
2024/02/26 08:23:18;;;;;;;4.63;3.63;;;;;;;5.28;100.00;100004.00;6096262;23;20162;-71
2024/02/26 08:25:47;;;;;;;5.53;4.97;;;;;;;5.28;100.00;100004.78;6096450;23;20174;-69
2024/02/26 08:28:17;;;;;;;5.78;4.63;;;;;;;5.38;100.00;100009.84;6096094;23;20194;-68
2024/02/26 08:30:46;;;;;;;2.80;2.22;;;;;;;5.46;100.00;100010.59;6096611;23;20159;-69
2024/02/26 08:33:15;;;;;;;13.43;5.22;;;;;;;5.72;100.00;100009.16;6096207;23;20171;-68
2024/02/26 08:35:44;;;;;;;6.95;5.28;;;;;;;5.98;100.00;100020.19;6095679;23;20167;-69
2024/02/26 08:38:15;;;;;;;9.15;5.85;;;;;;;6.20;100.00;100011.06;6095861;23;20211;-68
2024/02/26 08:40:44;;;;;;;7.30;5.03;;;;;;;6.22;100.00;100014.38;6070662;23;20164;-67
2024/02/26 08:43:12;;;;;;;5.70;3.28;;;;;;;6.22;100.00;100008.19;6096654;23;20181;-68
2024/02/26 08:45:41;;;;;;;8.82;6.03;;;;;;;6.34;100.00;100018.19;6096447;23;20163;-66
2024/02/26 08:48:10;;;;;;;5.18;4.65;;;;;;;6.47;100.00;100012.91;6096568;23;20183;-69
2024/02/26 08:50:39;;;;;;;6.93;4.90;;;;;;;6.67;100.00;100013.03;6096275;23;20198;-69
2024/02/26 08:53:08;;;;;;;8.88;6.38;;;;;;;6.99;98.85;100014.22;6096287;23;20164;-68
2024/02/26 08:55:38;;;;;;;8.45;4.20;;;;;;;6.96;97.18;100011.94;6095850;23;20182;-69
2024/02/26 08:58:07;;;;;;;3.47;2.78;;;;;;;7.08;97.13;100006.81;6095730;23;20652;-69
2024/02/26 09:00:36;;;;;;;5.65;3.85;;;;;;;7.17;96.30;100008.28;6095570;23;20163;-69
2024/02/26 09:07:07;;;;;;;5.53;4.25;;;;;;;7.28;95.83;100011.22;6096495;23;20143;-69
2024/02/26 09:09:36;;;;;;;4.15;3.75;;;;;;;7.28;95.20;100005.84;6096528;23;20223;-67
2024/02/26 09:12:07;;;;;;;3.90;3.50;;;;;;;7.53;95.19;100008.81;6096342;23;20628;-67
2024/02/26 09:14:37;;;;;;;6.50;3.90;;;;;;;7.87;93.49;100005.13;6096242;23;20351;-68
2024/02/26 09:17:07;;;;;;;6.10;5.50;;;;;;;7.90;92.24;100010.09;6095839;23;20179;-67
2024/02/26 09:19:37;;;;;;;7.47;4.75;;;;;;;7.97;92.09;100002.88;6097756;23;20187;-66
2024/02/26 09:22:07;;;;;;;5.65;3.35;;;;;;;8.01;91.26;99997.88;6097672;23;20376;-67
2024/02/26 09:24:35;;;;;;;5.55;3.22;;;;;;;8.18;90.75;100005.34;6097390;23;20590;-68
2024/02/26 09:27:06;;;;;;;5.68;3.92;;;;;;;8.11;90.85;100007.22;6097709;23;20156;-69
2024/02/26 09:29:37;;;;;;;4.88;3.05;;;;;;;8.24;90.25;100006.38;6097546;23;20191;-69
2024/02/26 09:32:06;;;;;;;8.65;5.63;;;;;;;8.36;89.58;100009.31;6097403;23;20154;-66
2024/02/26 09:34:35;;;;;;;7.55;4.35;;;;;;;8.43;89.09;100002.03;6097584;23;20203;-69
2024/02/26 09:37:04;;;;;;;3.90;2.90;;;;;;;8.52;88.90;100011.59;6097897;23;20191;-67
2024/02/26 09:39:48;;;;;;;5.00;4.55;;;;;;;8.61;88.41;100018.41;6097913;23;20672;-68
2024/02/26 09:42:20;;;;;;;4.10;3.80;;;;;;;8.55;87.93;100027.34;6097355;23;20258;-70
2024/02/26 09:44:53;;;;;;;5.95;4.05;;;;;;;8.48;88.56;100013.84;6097931;23;20155;-67
2024/02/26 09:47:24;;;;;;;5.85;4.85;;;;;;;8.52;88.55;100022.38;6097659;23;20156;-68
2024/02/26 09:49:54;;;;;;;5.25;4.40;;;;;;;8.68;87.97;100016.50;6096691;23;20231;-67
2024/02/26 09:52:24;;;;;;;8.00;5.03;;;;;;;8.68;87.77;100024.59;6096540;23;20156;-66
2024/02/26 09:54:53;;;;;;;7.63;4.68;;;;;;;8.73;87.47;100030.19;6069739;23;20197;-67
2024/02/26 09:57:24;;;;;;;7.10;4.00;;;;;;;8.66;87.86;100026.69;6094908;23;20356;-66
2024/02/26 10:00:00;;;;;;;7.15;4.65;;;;;;;8.77;87.42;100028.72;6094515;23;20188;-67
2024/02/26 10:02:31;;;;;;;5.72;4.43;;;;;;;8.93;86.92;100028.28;6095167;23;20499;-67
2024/02/26 10:05:05;;;;;;;3.38;2.92;;;;;;;8.93;86.72;100025.56;6094890;23;20152;-67
2024/02/26 10:07:36;;;;;;;10.98;4.88;;;;;;;9.15;86.06;100026.09;6094713;23;20156;-67
2024/02/26 10:10:06;;;;;;;6.82;4.00;;;;;;;9.45;84.42;100035.31;6094537;23;20200;-69
2024/02/26 10:12:37;;;;;;;10.20;4.20;;;;;;;9.54;82.97;100035.88;6094822;23;20155;-67
2024/02/26 10:15:06;;;;;;;14.05;4.57;;;;;;;9.63;82.96;100033.78;6095369;23;20380;-66
2024/02/26 10:17:36;;;;;;;3.73;3.43;;;;;;;9.69;81.43;100036.44;6096804;23;20155;-68
2024/02/26 10:20:15;;;;;;;5.27;4.20;;;;;;;9.76;81.55;100034.53;6096904;23;20454;-68
2024/02/26 10:22:46;;;;;;;4.07;3.67;;;;;;;9.81;80.63;100031.16;6097131;23;20897;-71
2024/02/26 10:25:16;;;;;;;7.03;4.25;;;;;;;9.80;80.20;100027.63;6096680;23;20167;-69
2024/02/26 10:27:48;;;;;;;7.57;3.67;;;;;;;9.99;79.47;100028.53;6094723;23;20221;-68
2024/02/26 10:30:20;;;;;;;3.75;3.45;;;;;;;10.27;77.98;100036.25;6095463;23;20752;-65
2024/02/26 10:32:50;;;;;;;5.90;3.42;;;;;;;10.15;77.93;100038.81;6096435;23;20147;-66
2024/02/26 10:35:21;;;;;;;7.70;3.17;;;;;;;10.31;78.02;100032.06;6070709;23;20171;-67
2024/02/26 10:37:51;;;;;;;4.27;2.33;;;;;;;10.52;76.71;100023.53;6095260;23;20412;-67
2024/02/26 10:40:20;;;;;;;6.37;3.77;;;;;;;10.72;74.16;100040.41;6095076;23;21043;-67
2024/02/26 10:42:51;;;;;;;5.30;2.93;;;;;;;10.74;73.55;100030.22;6093830;23;20995;-70
2024/02/26 10:45:20;;;;;;;6.73;3.30;;;;;;;10.98;73.27;100028.50;6094472;23;20379;-67
2024/02/26 10:47:48;;;;;;;5.13;3.17;;;;;;;11.00;73.46;100031.78;6094170;23;20392;-68
2024/02/26 10:50:18;;;;;;;3.40;2.73;;;;;;;10.99;72.87;100038.22;6094330;23;20374;-67
2024/02/26 10:52:59;;;;;;;8.40;2.80;;;;;;;11.15;71.97;100039.53;6068766;23;20407;-67
2024/02/26 10:55:28;;;;;;;4.23;3.13;;;;;;;11.07;72.24;100043.38;6093758;23;20441;-68
2024/02/26 10:57:59;;;;;;;3.87;3.57;;;;;;;11.31;71.69;100038.91;6093773;23;20388;-69
2024/02/26 11:00:29;;;;;;;8.80;4.17;;;;;;;11.05;70.91;100044.63;6094247;23;20380;-68
2024/02/26 11:03:01;;;;;;;3.10;2.80;;;;;;;10.83;72.08;100042.38;6094031;23;20978;-67
2024/02/26 11:05:31;;;;;;;8.10;4.40;;;;;;;10.86;70.95;100044.63;6094080;23;20426;-67
2024/02/26 11:08:00;;;;;;;10.03;3.67;;;;;;;10.99;70.97;100032.81;6094474;23;20487;-67
2024/02/26 11:10:32;;;;;;;5.13;4.67;;;;;;;11.22;70.77;100034.88;6094115;23;20463;-66
2024/02/26 11:13:06;;;;;;;4.70;3.40;;;;;;;11.51;69.76;100034.06;6095346;23;20442;-67
2024/02/26 11:15:35;;;;;;;4.50;3.50;;;;;;;11.42;69.95;100043.56;6094461;23;20359;-68
2024/02/26 11:18:04;;;;;;;3.63;3.30;;;;;;;11.32;69.25;100046.00;6094400;23;20395;-66
2024/02/26 11:20:34;;;;;;;3.53;2.80;;;;;;;11.25;69.43;100047.94;6094040;23;20399;-68
2024/02/26 11:23:03;;;;;;;3.93;3.63;;;;;;;11.33;70.03;100032.19;6094483;23;20423;-68
2024/02/26 11:25:32;;;;;;;3.83;2.23;;;;;;;11.35;69.33;100034.69;6094124;23;20367;-67
2024/02/26 11:28:10;;;;;;;6.87;4.30;;;;;;;11.49;69.00;100038.88;6095372;23;20380;-67
2024/02/26 11:30:43;;;;;;;6.47;3.97;;;;;;;11.37;66.68;100031.75;6095579;23;20425;-69
2024/02/26 11:33:13;;;;;;;3.73;2.57;;;;;;;11.35;67.84;100042.81;6098934;23;20459;-68
2024/02/26 11:35:42;;;;;;;7.63;4.87;;;;;;;11.21;68.36;100033.19;6098700;23;20357;-69
2024/02/26 11:38:21;;;;;;;4.23;3.90;;;;;;;11.07;68.95;100035.25;6099109;23;20427;-68
2024/02/26 11:40:50;;;;;;;5.43;2.93;;;;;;;11.20;68.55;100039.66;6096943;23;20382;-68
2024/02/26 11:43:45;;;;;;;4.33;3.10;;;;;;;11.24;67.51;100040.88;6096232;23;20415;-69
2024/02/26 11:46:27;;;;;;;3.50;2.97;;;;;;;11.17;67.50;100043.66;6096010;23;20408;-67
2024/02/26 11:48:59;;;;;;;4.10;3.13;;;;;;;11.21;68.59;100044.03;6096354;23;20474;-67